Terminal Aerodrome Forecast
Issued by NWS

Home | Current Version | Previous Version | Text Only | Print | Product List | Glossary Off
Versions: 1 2 3 4 5 6 7 8 9 10 11 12 13 14 15 16 17 18 19

000
FTUS42 KMHX 012300
TAFISO
TAF
KISO 012321Z 0200/0224 08004KT P6SM VCSH BKN005 OVC015
     FM020300 07003KT P6SM SCT025 BKN035
     FM020700 00000KT 2SM BR VCSH BKN007 OVC025
     FM021300 13005KT 5SM -SHRA SCT007 OVC025
     FM021700 05005KT 6SM -SHRA OVC030
      AMD LTD TO CLD VIS AND WIND=

USA.gov is the U.S. government's official web portal to all federal, state and local government web resources and services.